createdAt,value
2023-04-06T00:01:58.602Z,5.05
2023-04-06T00:04:26.635Z,4.72
2023-04-06T00:06:54.091Z,4.82
2023-04-06T00:09:21.562Z,4.96
2023-04-06T00:11:49.304Z,5.02
2023-04-06T00:14:18.385Z,4.97
2023-04-06T00:16:46.129Z,4.78
2023-04-06T00:19:13.914Z,4.75
2023-04-06T00:21:41.460Z,4.78
2023-04-06T00:24:08.936Z,4.88
2023-04-06T00:26:36.835Z,4.70
2023-04-06T00:29:04.455Z,4.60
2023-04-06T00:31:31.985Z,4.45
2023-04-06T00:33:59.758Z,4.56
2023-04-06T00:36:27.716Z,4.56
2023-04-06T00:38:56.023Z,4.46
2023-04-06T00:41:23.879Z,4.65
2023-04-06T00:43:52.149Z,4.66
2023-04-06T00:46:20.531Z,4.50
2023-04-06T00:48:48.298Z,4.61
2023-04-06T00:51:15.837Z,4.64
2023-04-06T00:53:43.527Z,4.65
2023-04-06T00:56:11.706Z,4.38
2023-04-06T00:58:41.687Z,4.38
2023-04-06T01:01:09.555Z,4.30
2023-04-06T01:03:37.871Z,4.22
2023-04-06T01:06:05.925Z,4.32
2023-04-06T01:08:34.056Z,4.33
2023-04-06T01:11:03.217Z,4.23
2023-04-06T01:13:30.842Z,4.37
2023-04-06T01:15:58.592Z,4.37
2023-04-06T01:18:30.811Z,4.26
2023-04-06T01:21:00.546Z,4.21
2023-04-06T01:23:28.874Z,4.20
2023-04-06T01:25:56.595Z,4.20
2023-04-06T01:28:24.214Z,4.03
2023-04-06T01:30:52.439Z,4.11
2023-04-06T01:33:21.135Z,4.12
2023-04-06T01:35:51.071Z,4.03
2023-04-06T01:38:19.529Z,4.14
2023-04-06T01:40:48.182Z,4.12
2023-04-06T01:43:17.522Z,4.15
2023-04-06T01:45:46.140Z,4.14
2023-04-06T01:48:14.090Z,4.03
2023-04-06T01:50:42.203Z,4.06
2023-04-06T01:53:11.302Z,3.97
2023-04-06T01:55:39.122Z,4.03
2023-04-06T01:58:09.446Z,3.98
2023-04-06T02:00:37.447Z,3.96
2023-04-06T02:03:05.777Z,4.02
2023-04-06T02:05:39.226Z,3.91
2023-04-06T02:08:09.298Z,3.97
2023-04-06T02:10:37.120Z,3.99
2023-04-06T02:13:05.506Z,4.04
2023-04-06T02:15:33.603Z,3.97
2023-04-06T02:18:01.716Z,3.83
2023-04-06T02:20:29.587Z,3.81
2023-04-06T02:22:59.697Z,4.01
2023-04-06T02:25:27.646Z,3.89
2023-04-06T02:27:55.822Z,3.92
2023-04-06T02:30:23.545Z,3.95
2023-04-06T02:32:51.242Z,3.94
2023-04-06T02:35:19.245Z,4.05
2023-04-06T02:37:48.366Z,4.01
2023-04-06T02:40:15.939Z,4.03
2023-04-06T02:42:43.485Z,3.94
2023-04-06T02:45:12.419Z,3.98
2023-04-06T02:47:40.312Z,3.98
2023-04-06T02:50:08.098Z,3.95
2023-04-06T02:52:37.390Z,3.97
2023-04-06T02:55:05.553Z,4.00
2023-04-06T02:57:33.087Z,4.01
2023-04-06T03:00:00.940Z,3.85
2023-04-06T03:02:29.404Z,3.74
2023-04-06T03:04:59.440Z,3.80
2023-04-06T03:07:27.628Z,3.86
2023-04-06T03:09:56.108Z,3.84
2023-04-06T03:12:23.676Z,3.81
2023-04-06T03:14:53.207Z,3.75
2023-04-06T03:17:21.350Z,3.82
2023-04-06T03:19:49.470Z,3.71
2023-04-06T03:22:17.877Z,3.75
2023-04-06T03:24:47.981Z,3.67
2023-04-06T03:27:15.930Z,3.76
2023-04-06T03:29:45.526Z,3.69
2023-04-06T03:32:13.564Z,3.71
2023-04-06T03:34:41.676Z,3.68
2023-04-06T03:37:10.702Z,3.63
2023-04-06T03:39:39.411Z,3.66
2023-04-06T03:42:07.325Z,3.59
2023-04-06T03:44:35.622Z,3.61
2023-04-06T03:47:03.304Z,3.49
2023-04-06T03:49:31.209Z,3.43
2023-04-06T03:51:59.298Z,3.47
2023-04-06T03:54:26.800Z,3.46
2023-04-06T03:56:54.219Z,3.35
2023-04-06T03:59:22.152Z,3.40
2023-04-06T04:01:49.782Z,3.29
2023-04-06T04:04:17.697Z,3.40
2023-04-06T04:06:45.388Z,3.37
2023-04-06T04:09:12.976Z,3.38
2023-04-06T04:11:40.916Z,3.24
2023-04-06T04:14:08.434Z,3.30
2023-04-06T04:16:36.121Z,3.28
2023-04-06T04:19:03.895Z,3.18
2023-04-06T04:21:32.942Z,3.24
2023-04-06T04:24:01.734Z,3.17
2023-04-06T04:26:29.614Z,3.02
2023-04-06T04:28:57.139Z,3.20
2023-04-06T04:31:24.746Z,3.16
2023-04-06T04:33:53.724Z,3.13
2023-04-06T04:36:25.441Z,3.17
2023-04-06T04:38:53.963Z,3.17
2023-04-06T04:41:21.593Z,3.13
2023-04-06T04:43:50.229Z,3.35
2023-04-06T04:46:21.147Z,3.38
2023-04-06T04:48:49.040Z,3.25
2023-04-06T04:51:16.846Z,3.20
2023-04-06T04:53:46.207Z,3.20
2023-04-06T04:56:15.786Z,3.20
2023-04-06T04:58:44.375Z,3.15
2023-04-06T05:01:12.512Z,3.15
2023-04-06T05:03:41.241Z,2.75
2023-04-06T05:06:10.085Z,3.02
2023-04-06T05:08:40.067Z,2.98
2023-04-06T05:11:08.146Z,2.88
2023-04-06T05:13:36.412Z,2.52
2023-04-06T05:16:06.845Z,2.65
2023-04-06T05:18:35.073Z,2.92
2023-04-06T05:21:03.182Z,3.19
2023-04-06T05:23:31.811Z,3.26
2023-04-06T05:26:01.921Z,3.39
2023-04-06T05:28:29.620Z,2.92
2023-04-06T05:30:58.034Z,3.13
2023-04-06T05:33:27.270Z,3.05
2023-04-06T05:35:55.896Z,3.11
2023-04-06T05:38:24.115Z,2.74
2023-04-06T05:40:52.497Z,3.34
2023-04-06T05:43:22.920Z,3.51
2023-04-06T05:45:53.096Z,3.38
2023-04-06T05:48:21.397Z,3.13
2023-04-06T05:50:52.174Z,2.69
2023-04-06T05:53:22.169Z,3.16
2023-04-06T05:55:50.898Z,3.46
2023-04-06T05:58:18.673Z,3.55
2023-04-06T06:00:47.094Z,3.80
2023-04-06T06:03:16.308Z,3.74
2023-04-06T06:05:46.825Z,3.39
2023-04-06T06:08:15.530Z,3.48
2023-04-06T06:10:43.950Z,3.38
2023-04-06T06:13:12.149Z,3.45
2023-04-06T06:15:39.989Z,3.97
2023-04-06T06:18:07.931Z,4.19
2023-04-06T06:20:35.935Z,4.31
2023-04-06T06:23:04.265Z,4.41
2023-04-06T06:25:32.141Z,4.47
2023-04-06T06:28:00.071Z,4.88
2023-04-06T06:30:29.284Z,4.79
2023-04-06T06:32:56.821Z,4.89
2023-04-06T06:35:24.948Z,4.90
2023-04-06T06:37:53.119Z,5.06
2023-04-06T06:40:25.022Z,5.24
2023-04-06T06:42:53.900Z,5.28
2023-04-06T06:45:22.457Z,5.14
2023-04-06T06:47:50.842Z,4.49
2023-04-06T06:50:20.081Z,4.98
2023-04-06T06:52:47.531Z,5.26
2023-04-06T06:55:16.278Z,5.34
2023-04-06T06:57:44.206Z,5.46
2023-04-06T07:00:14.178Z,5.86
2023-04-06T07:02:42.099Z,5.53
2023-04-06T07:05:23.943Z,5.57
2023-04-06T07:07:55.385Z,5.44
2023-04-06T07:10:23.464Z,6.01
2023-04-06T07:12:51.009Z,5.96
2023-04-06T07:15:18.877Z,5.99
2023-04-06T07:17:46.896Z,5.98
2023-04-06T07:20:14.911Z,6.08
2023-04-06T07:22:44.689Z,5.84
2023-04-06T07:25:12.506Z,6.20
2023-04-06T07:27:41.664Z,5.71
2023-04-06T07:30:09.699Z,6.08
2023-04-06T07:32:38.404Z,5.93
2023-04-06T07:35:06.291Z,6.04
2023-04-06T07:37:33.718Z,6.26
2023-04-06T07:40:01.482Z,6.62
2023-04-06T07:42:30.653Z,6.60
2023-04-06T07:44:58.290Z,6.26
2023-04-06T07:47:26.320Z,5.97
2023-04-06T07:49:57.040Z,5.98
2023-04-06T07:52:24.556Z,6.11
2023-04-06T07:54:52.334Z,6.02
2023-04-06T07:57:19.983Z,5.98
2023-04-06T07:59:47.460Z,6.38
2023-04-06T08:02:15.726Z,6.37
2023-04-06T08:04:45.780Z,6.40
2023-04-06T08:07:13.619Z,6.76
2023-04-06T08:09:41.090Z,6.63
2023-04-06T08:12:08.803Z,6.92
2023-04-06T08:14:36.314Z,6.73
2023-04-06T08:17:06.247Z,6.83
2023-04-06T08:19:34.323Z,6.59
2023-04-06T08:22:01.919Z,6.78
2023-04-06T08:24:29.472Z,6.64
2023-04-06T08:26:57.195Z,6.91
2023-04-06T08:29:24.691Z,6.98
2023-04-06T08:31:52.406Z,6.95
2023-04-06T08:34:20.205Z,7.10
2023-04-06T08:36:47.807Z,7.22
2023-04-06T08:39:15.310Z,7.34
2023-04-06T08:41:43.947Z,7.16
2023-04-06T08:44:12.519Z,7.52
2023-04-06T08:46:40.118Z,7.56
2023-04-06T08:49:08.896Z,7.74
2023-04-06T08:51:39.041Z,8.19
2023-04-06T08:54:06.690Z,8.38
2023-04-06T08:56:38.656Z,8.47
2023-04-06T08:59:07.208Z,8.41
2023-04-06T09:01:42.141Z,8.41
2023-04-06T09:04:12.348Z,8.80
2023-04-06T09:06:41.802Z,9.02
2023-04-06T09:09:09.590Z,9.09
2023-04-06T09:11:50.766Z,8.97
2023-04-06T09:14:33.766Z,9.07
2023-04-06T09:17:01.075Z,8.59
2023-04-06T09:19:28.757Z,8.53
2023-04-06T09:22:08.048Z,8.73
2023-04-06T09:24:44.168Z,9.04
2023-04-06T09:27:11.656Z,9.07
2023-04-06T09:29:39.443Z,8.97
2023-04-06T09:32:08.026Z,8.89
2023-04-06T09:34:35.587Z,8.92
2023-04-06T09:37:14.092Z,8.29
2023-04-06T09:39:41.858Z,8.57
2023-04-06T09:42:09.720Z,8.89
2023-04-06T09:44:37.276Z,9.06
2023-04-06T09:47:07.966Z,8.91
2023-04-06T09:49:36.397Z,9.03
2023-04-06T09:52:05.605Z,8.96
2023-04-06T09:54:33.253Z,8.89
2023-04-06T09:57:26.736Z,9.04
2023-04-06T10:00:00.267Z,8.39
2023-04-06T10:02:47.663Z,8.29
2023-04-06T10:05:27.713Z,8.93
2023-04-06T10:08:00.722Z,9.48
2023-04-06T10:10:29.911Z,9.43
2023-04-06T10:12:57.790Z,9.47
2023-04-06T10:15:25.609Z,9.60
2023-04-06T10:17:53.388Z,9.88
2023-04-06T10:20:32.194Z,10.17
2023-04-06T10:23:16.431Z,9.93
2023-04-06T10:25:58.131Z,10.08
2023-04-06T10:28:26.738Z,10.19
2023-04-06T10:31:06.181Z,10.27
2023-04-06T10:33:37.218Z,10.31
2023-04-06T10:36:24.278Z,10.27
2023-04-06T10:39:00.461Z,9.73
2023-04-06T10:41:42.280Z,10.01
2023-04-06T10:44:22.156Z,10.35
2023-04-06T10:46:57.419Z,10.41
2023-04-06T10:49:27.353Z,10.26
2023-04-06T10:51:56.377Z,9.78
2023-04-06T10:54:25.906Z,10.42
2023-04-06T10:56:53.668Z,10.31
2023-04-06T10:59:22.625Z,10.25
2023-04-06T11:01:50.673Z,10.49
2023-04-06T11:04:19.323Z,10.46
2023-04-06T11:06:50.967Z,11.00
2023-04-06T11:09:27.091Z,11.05
2023-04-06T11:11:55.335Z,10.83
2023-04-06T11:14:23.121Z,10.77
2023-04-06T11:16:51.200Z,11.18
2023-04-06T11:19:19.047Z,10.99
2023-04-06T11:21:48.502Z,11.26
2023-04-06T11:24:16.368Z,11.23
2023-04-06T11:26:46.792Z,11.45
2023-04-06T11:29:14.991Z,11.36
2023-04-06T11:32:03.645Z,10.98
2023-04-06T11:34:33.593Z,10.89
2023-04-06T11:37:03.448Z,10.82
2023-04-06T11:39:31.427Z,10.87
2023-04-06T11:42:00.850Z,10.80
2023-04-06T11:44:41.403Z,11.05
2023-04-06T11:47:10.783Z,10.58
2023-04-06T11:49:40.043Z,10.78
2023-04-06T11:52:24.813Z,10.84
2023-04-06T11:54:54.245Z,10.89
2023-04-06T11:57:25.423Z,11.19
2023-04-06T11:59:53.534Z,11.45
2023-04-06T12:02:21.321Z,11.13
2023-04-06T12:04:49.096Z,11.09
2023-04-06T12:07:16.624Z,10.85
2023-04-06T12:09:44.326Z,11.31
2023-04-06T12:12:12.081Z,11.28
2023-04-06T12:14:42.567Z,10.96
2023-04-06T12:17:09.983Z,11.14
2023-04-06T12:19:37.715Z,11.07
2023-04-06T12:22:05.419Z,10.85
2023-04-06T12:24:34.330Z,10.88
2023-04-06T12:27:10.243Z,10.87
2023-04-06T12:29:39.378Z,10.56
2023-04-06T12:32:07.211Z,10.74
2023-04-06T12:34:34.773Z,10.94
2023-04-06T12:37:02.238Z,10.79
2023-04-06T12:39:30.083Z,11.30
2023-04-06T12:41:58.185Z,11.38
2023-04-06T12:44:26.949Z,11.00
2023-04-06T12:46:55.179Z,11.05
2023-04-06T12:49:22.981Z,11.20
2023-04-06T12:51:51.253Z,11.28
2023-04-06T12:54:19.190Z,11.56
2023-04-06T12:56:47.021Z,11.24
2023-04-06T12:59:14.552Z,11.51
2023-04-06T13:01:42.413Z,11.57
2023-04-06T13:04:10.086Z,11.47
2023-04-06T13:06:37.530Z,11.52
2023-04-06T13:09:06.560Z,11.52
2023-04-06T13:11:34.014Z,11.06
2023-04-06T13:14:01.490Z,11.24
2023-04-06T13:16:29.474Z,11.09
2023-04-06T13:18:56.942Z,11.04
2023-04-06T13:21:24.418Z,10.90
2023-04-06T13:23:52.168Z,10.87
2023-04-06T13:26:19.638Z,10.98
2023-04-06T13:28:47.147Z,11.24
2023-04-06T13:31:14.994Z,10.98
2023-04-06T13:33:42.527Z,10.76
2023-04-06T13:36:10.203Z,10.44
2023-04-06T13:38:39.976Z,10.65
2023-04-06T13:41:07.564Z,10.53
2023-04-06T13:43:35.099Z,10.49
2023-04-06T13:46:02.850Z,10.68
2023-04-06T13:48:30.508Z,10.78
2023-04-06T13:50:58.698Z,10.65
2023-04-06T13:53:26.447Z,10.71
2023-04-06T13:55:56.955Z,10.65
2023-04-06T13:58:24.550Z,10.63
2023-04-06T14:00:52.272Z,10.65
2023-04-06T14:03:22.164Z,10.88
2023-04-06T14:05:49.620Z,10.88
2023-04-06T14:08:17.105Z,11.16
2023-04-06T14:10:44.791Z,10.69
2023-04-06T14:13:12.808Z,10.44
2023-04-06T14:15:40.247Z,10.38
2023-04-06T14:18:08.940Z,10.17
2023-04-06T14:20:36.377Z,9.79
2023-04-06T14:23:04.451Z,10.10
2023-04-06T14:25:33.138Z,9.52
2023-04-06T14:28:02.731Z,9.56
2023-04-06T14:30:31.698Z,9.70
2023-04-06T14:32:59.519Z,9.39
2023-04-06T14:35:29.045Z,9.66
2023-04-06T14:37:58.975Z,9.77
2023-04-06T14:40:26.777Z,9.55
2023-04-06T14:42:55.759Z,9.90
2023-04-06T14:45:23.613Z,10.11
2023-04-06T14:47:51.657Z,10.11
2023-04-06T14:50:19.090Z,9.76
2023-04-06T14:52:47.871Z,10.05
2023-04-06T14:55:16.530Z,9.79
2023-04-06T14:57:43.930Z,9.65
2023-04-06T15:00:12.254Z,9.62
2023-04-06T15:02:40.884Z,9.66
2023-04-06T15:05:08.774Z,9.91
2023-04-06T15:07:36.273Z,9.77
2023-04-06T15:10:05.698Z,9.90
2023-04-06T15:12:33.731Z,9.81
2023-04-06T15:15:01.998Z,9.42
2023-04-06T15:17:29.684Z,9.47
2023-04-06T15:19:57.092Z,9.68
2023-04-06T15:22:24.533Z,9.74
2023-04-06T15:24:52.158Z,9.80
2023-04-06T15:27:19.520Z,9.83
2023-04-06T15:29:46.903Z,9.69
2023-04-06T15:32:14.816Z,9.59
2023-04-06T15:34:42.483Z,9.80
2023-04-06T15:37:09.841Z,9.43
2023-04-06T15:39:37.836Z,9.35
2023-04-06T15:42:05.397Z,9.72
2023-04-06T15:44:32.843Z,9.35
2023-04-06T15:47:00.641Z,9.58
2023-04-06T15:49:28.586Z,9.65
2023-04-06T15:51:56.111Z,9.82
2023-04-06T15:54:23.788Z,9.88
2023-04-06T15:56:51.314Z,9.45
2023-04-06T15:59:18.851Z,9.04
2023-04-06T16:01:47.159Z,9.14
2023-04-06T16:04:15.119Z,9.20
2023-04-06T16:06:42.682Z,9.15
2023-04-06T16:09:10.268Z,9.00
2023-04-06T16:11:37.968Z,8.90
2023-04-06T16:14:05.613Z,8.27
2023-04-06T16:16:33.110Z,8.85
2023-04-06T16:19:00.975Z,8.60
2023-04-06T16:21:28.772Z,8.36
2023-04-06T16:23:58.516Z,8.52
2023-04-06T16:26:27.545Z,8.52
2023-04-06T16:28:55.070Z,8.28
2023-04-06T16:31:23.843Z,8.26
2023-04-06T16:33:56.869Z,8.54
2023-04-06T16:36:28.979Z,8.00
2023-04-06T16:38:57.227Z,7.92
2023-04-06T16:41:25.002Z,7.82
2023-04-06T16:43:53.640Z,7.78
2023-04-06T16:46:21.550Z,7.67
2023-04-06T16:48:49.058Z,7.27
2023-04-06T16:51:16.716Z,7.21
2023-04-06T16:53:44.627Z,6.93
2023-04-06T16:56:12.179Z,6.85
2023-04-06T16:58:39.643Z,6.97
2023-04-06T17:01:07.294Z,6.58
2023-04-06T17:03:35.314Z,6.60
2023-04-06T17:06:02.774Z,6.44
2023-04-06T17:08:30.546Z,6.03
2023-04-06T17:11:02.497Z,5.97
2023-04-06T17:13:31.332Z,6.07
2023-04-06T17:15:59.727Z,6.13
2023-04-06T17:18:27.464Z,5.77
2023-04-06T17:20:55.263Z,5.95
2023-04-06T17:23:24.169Z,5.85
2023-04-06T17:25:52.418Z,5.93
2023-04-06T17:28:27.992Z,5.79
2023-04-06T17:30:56.427Z,5.71
2023-04-06T17:33:25.133Z,5.58
2023-04-06T17:35:53.073Z,5.84
2023-04-06T17:38:21.141Z,5.77
2023-04-06T17:40:48.664Z,5.64
2023-04-06T17:43:17.061Z,5.76
2023-04-06T17:45:44.937Z,6.00
2023-04-06T17:48:12.401Z,5.68
2023-04-06T17:50:40.269Z,5.90
2023-04-06T17:53:08.532Z,5.44
2023-04-06T17:55:36.385Z,5.47
2023-04-06T17:58:04.879Z,5.67
2023-04-06T18:00:32.315Z,5.87
2023-04-06T18:03:00.174Z,5.98
2023-04-06T18:05:27.739Z,6.01
2023-04-06T18:07:57.917Z,6.13
2023-04-06T18:10:25.733Z,6.05
2023-04-06T18:12:53.160Z,5.95
2023-04-06T18:15:20.837Z,6.00
2023-04-06T18:17:50.468Z,6.31
2023-04-06T18:20:17.926Z,6.19
2023-04-06T18:22:45.411Z,5.87
2023-04-06T18:25:13.192Z,5.94
2023-04-06T18:27:41.004Z,5.92
2023-04-06T18:30:08.811Z,6.16
2023-04-06T18:32:36.843Z,6.04
2023-04-06T18:35:06.786Z,6.04
2023-04-06T18:37:34.243Z,6.03
2023-04-06T18:40:02.247Z,6.01
2023-04-06T18:42:29.601Z,5.83
2023-04-06T18:44:56.967Z,5.57
2023-04-06T18:47:24.684Z,5.98
2023-04-06T18:49:52.146Z,5.79
2023-04-06T18:52:19.590Z,5.54
2023-04-06T18:54:47.226Z,5.89
2023-04-06T18:57:14.634Z,6.21
2023-04-06T18:59:42.082Z,5.63
2023-04-06T19:02:09.797Z,6.02
2023-04-06T19:04:37.462Z,5.85
2023-04-06T19:07:04.961Z,5.71
2023-04-06T19:09:32.578Z,5.91
2023-04-06T19:12:00.046Z,5.91
2023-04-06T19:14:31.650Z,6.14
2023-04-06T19:16:59.636Z,6.00
2023-04-06T19:19:27.114Z,6.28
2023-04-06T19:21:55.123Z,6.23
2023-04-06T19:24:22.791Z,6.22
2023-04-06T19:26:50.413Z,6.42
2023-04-06T19:29:18.012Z,6.32
2023-04-06T19:31:45.727Z,6.30
2023-04-06T19:34:17.666Z,6.43
2023-04-06T19:36:45.828Z,6.20
2023-04-06T19:39:17.419Z,6.24
2023-04-06T19:41:44.865Z,6.13
2023-04-06T19:44:12.251Z,6.12
2023-04-06T19:46:40.011Z,5.87
2023-04-06T19:49:07.517Z,6.02
2023-04-06T19:51:34.897Z,6.26
2023-04-06T19:54:03.303Z,6.19
2023-04-06T19:56:31.535Z,5.80
2023-04-06T19:58:59.863Z,5.88
2023-04-06T20:01:27.704Z,6.09
2023-04-06T20:03:55.727Z,5.77
2023-04-06T20:06:23.204Z,6.17
2023-04-06T20:08:50.604Z,6.05
2023-04-06T20:11:18.526Z,6.08
2023-04-06T20:13:45.953Z,6.05
2023-04-06T20:16:13.333Z,6.33
2023-04-06T20:18:41.103Z,6.25
2023-04-06T20:21:08.515Z,5.70
2023-04-06T20:23:37.433Z,5.48
2023-04-06T20:26:08.427Z,5.52
2023-04-06T20:28:35.965Z,5.51
2023-04-06T20:31:03.388Z,5.75
2023-04-06T20:33:31.202Z,5.75
2023-04-06T20:35:59.661Z,5.74
2023-04-06T20:38:33.222Z,5.65
2023-04-06T20:41:01.945Z,5.64
2023-04-06T20:43:30.210Z,5.81
2023-04-06T20:45:58.699Z,5.93
2023-04-06T20:48:26.480Z,5.72
2023-04-06T20:50:54.067Z,5.81
2023-04-06T20:53:21.543Z,5.63
2023-04-06T20:55:49.178Z,5.78
2023-04-06T20:58:20.557Z,5.93
2023-04-06T21:00:49.665Z,6.06
2023-04-06T21:03:18.483Z,6.40
2023-04-06T21:05:55.582Z,6.06
2023-04-06T21:10:50.907Z,5.46
2023-04-06T21:13:18.309Z,5.36
2023-04-06T21:15:46.025Z,5.34
2023-04-06T21:18:13.492Z,5.48
2023-04-06T21:20:41.110Z,5.47
2023-04-06T21:23:08.901Z,5.38
2023-04-06T21:25:37.226Z,5.72
2023-04-06T21:28:05.019Z,5.94
2023-04-06T21:30:36.905Z,5.61
2023-04-06T21:33:05.092Z,5.50
2023-04-06T21:35:33.715Z,5.96
2023-04-06T21:38:01.405Z,5.82
2023-04-06T21:40:28.967Z,5.77
2023-04-06T21:42:56.658Z,5.77
2023-04-06T21:45:24.065Z,5.84
2023-04-06T21:47:51.952Z,6.17
2023-04-06T21:50:19.652Z,6.16
2023-04-06T21:52:47.262Z,6.02
2023-04-06T21:55:15.197Z,6.29
2023-04-06T21:57:44.483Z,6.35
2023-04-06T22:00:12.480Z,6.36
2023-04-06T22:02:42.731Z,6.12
2023-04-06T22:05:10.814Z,6.18
2023-04-06T22:07:38.404Z,5.83
2023-04-06T22:10:06.293Z,6.28
2023-04-06T22:12:34.222Z,6.41
2023-04-06T22:15:01.588Z,6.40
2023-04-06T22:17:29.580Z,6.25
2023-04-06T22:19:57.378Z,6.33
2023-04-06T22:22:24.774Z,6.17
2023-04-06T22:24:52.194Z,6.23
2023-04-06T22:27:19.890Z,5.81
2023-04-06T22:29:47.406Z,5.73
2023-04-06T22:32:14.891Z,5.80
2023-04-06T22:34:42.630Z,5.43
2023-04-06T22:37:09.979Z,5.93
2023-04-06T22:39:37.420Z,5.96
2023-04-06T22:42:06.290Z,5.90
2023-04-06T22:44:33.651Z,6.29
2023-04-06T22:47:01.210Z,6.02
2023-04-06T22:49:28.962Z,6.18
2023-04-06T22:51:56.331Z,6.41
2023-04-06T22:54:23.942Z,6.55
2023-04-06T22:56:51.670Z,5.99
2023-04-06T22:59:19.130Z,6.14
2023-04-06T23:01:46.647Z,6.42
2023-04-06T23:04:14.429Z,6.43
2023-04-06T23:06:41.863Z,6.65
2023-04-06T23:09:09.246Z,6.59
2023-04-06T23:11:36.887Z,6.67
2023-04-06T23:14:04.260Z,6.21
2023-04-06T23:16:31.664Z,6.46
2023-04-06T23:18:59.390Z,6.38
2023-04-06T23:21:26.813Z,6.43
2023-04-06T23:23:54.882Z,6.46
2023-04-06T23:26:24.392Z,6.43
2023-04-06T23:28:51.900Z,6.34
2023-04-06T23:31:19.361Z,6.26
2023-04-06T23:33:47.030Z,6.55
2023-04-06T23:36:14.428Z,6.31
2023-04-06T23:38:41.845Z,6.47
2023-04-06T23:41:13.970Z,5.95
2023-04-06T23:43:41.333Z,6.34
2023-04-06T23:46:09.273Z,6.50
2023-04-06T23:48:36.678Z,6.74
2023-04-06T23:51:04.167Z,6.76
2023-04-06T23:53:32.233Z,6.67
2023-04-06T23:55:59.857Z,6.93
2023-04-06T23:58:27.271Z,6.78
